Time;durP1;ratioP1;P1;durP2;ratioP2;P2;SDS_P1;SDS_P2;PMS_P1;PMS_P2;Temp;Humidity;BMP_temperature;BMP_pressure;BME280_temperature;BME280_humidity;BME280_pressure;Samples;Min_cycle;Max_cycle;Signal;HPM_P1;HPM_P2
2021/05/07 00:01:51;;;;;;;13.48;9.48;;;;;;;11.00;92.76;99826.13;1802330;79;21263;-79
2021/05/07 00:04:56;;;;;;;16.70;9.93;;;;;;;10.97;93.19;99822.42;1802227;79;22510;-79
2021/05/07 00:08:03;;;;;;;15.72;10.43;;;;;;;10.95;93.47;99821.75;1803312;79;21327;-79
2021/05/07 00:11:18;;;;;;;17.45;10.45;;;;;;;10.93;93.78;99826.58;1811381;79;21336;-79
2021/05/07 00:14:24;;;;;;;17.85;9.58;;;;;;;10.89;93.96;99832.09;1810539;79;21323;-79
2021/05/07 00:17:29;;;;;;;14.90;10.18;;;;;;;10.86;94.08;99841.20;1811366;79;21284;-79
2021/05/07 00:20:35;;;;;;;16.70;10.90;;;;;;;10.81;94.18;99850.49;1811450;79;21291;-79
2021/05/07 00:23:42;;;;;;;18.35;10.65;;;;;;;10.75;94.41;99848.84;1811405;79;21180;-79
2021/05/07 00:26:48;;;;;;;16.93;10.90;;;;;;;10.70;94.59;99861.39;1810049;79;21724;-79
2021/05/07 00:29:54;;;;;;;17.80;10.95;;;;;;;10.66;94.95;99860.06;1810229;79;21216;-79
2021/05/07 00:32:59;;;;;;;13.98;9.80;;;;;;;10.64;95.22;99863.52;1811426;79;21863;-79
2021/05/07 00:36:04;;;;;;;17.42;11.20;;;;;;;10.63;95.40;99861.31;1810639;79;21322;-79
2021/05/07 00:39:10;;;;;;;20.43;11.75;;;;;;;10.65;95.59;99859.75;1811190;79;21795;-79
2021/05/07 00:42:18;;;;;;;22.15;11.48;;;;;;;10.68;95.69;99863.45;1811180;79;21188;-79
2021/05/07 00:45:23;;;;;;;20.05;11.80;;;;;;;10.68;95.77;99872.53;1809617;79;21377;-79
2021/05/07 00:48:28;;;;;;;19.87;13.08;;;;;;;10.68;95.83;99875.27;1811875;79;22598;-79
2021/05/07 00:51:33;;;;;;;17.82;11.48;;;;;;;10.65;95.88;99875.63;1811266;79;21326;-79
2021/05/07 00:54:39;;;;;;;17.90;11.90;;;;;;;10.61;95.78;99876.20;1809998;79;21307;-79
2021/05/07 00:57:45;;;;;;;20.40;12.95;;;;;;;10.56;95.66;99886.84;1811464;79;21575;-79
2021/05/07 01:00:53;;;;;;;17.92;13.00;;;;;;;10.54;95.74;99885.67;1811459;78;21247;-79
2021/05/07 01:03:58;;;;;;;20.70;14.15;;;;;;;10.52;95.76;99886.36;1811394;79;21287;-79
2021/05/07 01:07:03;;;;;;;20.88;15.30;;;;;;;10.50;95.87;99888.45;1812389;79;21869;-79
2021/05/07 01:10:10;;;;;;;21.42;15.08;;;;;;;10.46;95.85;99889.33;1784121;79;21327;-79
2021/05/07 01:13:15;;;;;;;25.37;14.63;;;;;;;10.41;95.87;99888.19;1768277;81;21300;-79
2021/05/07 01:16:18;;;;;;;21.82;15.23;;;;;;;10.34;95.95;99889.44;1767774;81;21169;-78
2021/05/07 01:19:23;;;;;;;28.27;14.98;;;;;;;10.30;96.07;99887.25;1768081;81;21844;-79
2021/05/07 01:22:29;;;;;;;27.30;15.35;;;;;;;10.27;96.17;99891.22;1768358;81;21185;-79
2021/05/07 01:25:38;;;;;;;24.32;14.50;;;;;;;10.24;96.25;99897.05;1768284;81;21779;-79
2021/05/07 01:28:45;;;;;;;27.62;17.40;;;;;;;10.18;96.24;99893.14;1768325;81;21177;-79
2021/05/07 01:31:56;;;;;;;22.00;15.08;;;;;;;10.13;96.20;99891.48;1768269;81;21902;-78
2021/05/07 01:35:00;;;;;;;25.67;16.33;;;;;;;10.10;96.17;99897.82;1763458;80;21335;-79
2021/05/07 01:38:13;;;;;;;22.48;14.65;;;;;;;10.06;96.04;99896.48;1768520;81;21831;-78
2021/05/07 01:41:20;;;;;;;28.27;16.20;;;;;;;9.99;96.01;99894.48;1766865;81;21335;-78
2021/05/07 01:44:26;;;;;;;23.10;15.55;;;;;;;9.96;95.95;99902.20;1768139;81;21878;-79
2021/05/07 01:47:32;;;;;;;22.27;16.07;;;;;;;9.94;95.93;99906.48;1767170;81;21374;-79
2021/05/07 01:50:41;;;;;;;34.43;18.98;;;;;;;9.91;95.77;99905.47;1767193;81;21201;-79
2021/05/07 01:53:47;;;;;;;38.80;19.07;;;;;;;9.89;95.58;99908.06;1768402;81;21260;-79
2021/05/07 01:56:53;;;;;;;32.42;18.95;;;;;;;9.85;95.47;99914.41;1767805;81;21847;-79
2021/05/07 02:00:00;;;;;;;27.85;18.57;;;;;;;9.81;95.38;99915.80;1768179;81;21576;-79
2021/05/07 02:03:07;;;;;;;27.52;18.15;;;;;;;9.75;95.33;99915.16;1768307;81;21280;-78
2021/05/07 02:06:15;;;;;;;25.90;18.42;;;;;;;9.71;95.34;99923.38;1768437;81;21836;-78
2021/05/07 02:09:21;;;;;;;27.32;19.10;;;;;;;9.64;95.38;99918.28;1768223;81;21307;-78
2021/05/07 02:12:27;;;;;;;26.20;19.17;;;;;;;9.58;95.39;99926.68;1811690;79;21184;-78
2021/05/07 02:15:32;;;;;;;30.88;18.67;;;;;;;9.52;95.32;99926.56;1772246;81;21334;-79
2021/05/07 02:18:39;;;;;;;32.55;18.20;;;;;;;9.47;95.34;99936.66;1743072;82;21364;-78
2021/05/07 02:21:46;;;;;;;25.68;16.52;;;;;;;9.41;95.37;99939.59;1742783;82;21901;-78
2021/05/07 02:24:51;;;;;;;30.60;17.87;;;;;;;9.37;95.40;99938.23;1742982;82;21307;-78
2021/05/07 02:27:58;;;;;;;26.75;17.73;;;;;;;9.31;95.40;99944.89;1741425;82;21333;-78
2021/05/07 02:31:04;;;;;;;29.02;18.05;;;;;;;9.27;95.48;99953.98;1744388;82;21355;-79
2021/05/07 02:34:11;;;;;;;27.27;17.75;;;;;;;9.24;95.53;99959.78;1743066;82;21198;-79
2021/05/07 02:37:16;;;;;;;30.75;20.05;;;;;;;9.18;95.38;99962.70;1742950;82;21331;-79
2021/05/07 02:40:21;;;;;;;27.52;19.02;;;;;;;9.18;95.35;99964.58;1742782;82;21325;-79
2021/05/07 02:43:29;;;;;;;29.10;19.00;;;;;;;9.21;95.41;99971.88;1744373;82;21296;-78
2021/05/07 02:46:41;;;;;;;32.45;19.20;;;;;;;9.22;95.17;99974.09;1742122;82;21396;-78
2021/05/07 02:49:47;;;;;;;29.87;18.45;;;;;;;9.21;94.85;99975.97;1724693;82;21238;-78
2021/05/07 02:52:55;;;;;;;28.15;17.95;;;;;;;9.21;94.64;99984.16;1742810;82;21699;-78
2021/05/07 02:56:02;;;;;;;27.10;18.12;;;;;;;9.21;94.38;99987.41;1744321;82;21871;-78
2021/05/07 02:59:07;;;;;;;27.77;17.80;;;;;;;9.28;94.37;99989.79;1741480;82;21308;-78
2021/05/07 03:02:14;;;;;;;27.22;16.77;;;;;;;9.51;94.56;99992.61;1743595;82;21882;-78
2021/05/07 03:05:21;;;;;;;29.50;17.82;;;;;;;9.86;94.37;99993.95;1743045;82;21863;-78
2021/05/07 03:08:31;;;;;;;21.82;15.13;;;;;;;10.24;93.31;100005.02;1743937;82;21335;-78
2021/05/07 03:11:37;;;;;;;21.82;14.85;;;;;;;10.59;91.56;100006.30;1740510;82;21874;-78
2021/05/07 03:14:44;;;;;;;23.10;15.78;;;;;;;10.84;89.53;100006.92;1801393;79;21338;-77
2021/05/07 03:17:53;;;;;;;24.65;16.12;;;;;;;10.98;87.93;100017.57;1801114;79;21244;-77
2021/05/07 03:20:59;;;;;;;26.87;15.45;;;;;;;11.06;87.01;100015.28;1802964;79;21751;-77
2021/05/07 03:24:07;;;;;;;22.22;14.28;;;;;;;11.16;86.56;100025.44;1802982;79;21819;-77
2021/05/07 03:27:13;;;;;;;26.93;14.65;;;;;;;11.28;86.12;100027.17;1802890;79;21291;-78
2021/05/07 03:30:20;;;;;;;20.23;14.20;;;;;;;11.44;85.90;100030.59;1803000;79;21291;-77
2021/05/07 03:33:27;;;;;;;20.02;11.90;;;;;;;11.67;85.14;100039.23;1803120;79;21354;-77
2021/05/07 03:36:34;;;;;;;18.30;11.48;;;;;;;11.85;84.38;100041.06;1802558;79;21244;-77
2021/05/07 03:39:40;;;;;;;15.63;11.00;;;;;;;12.10;83.77;100046.25;1801489;79;21288;-78
2021/05/07 03:42:47;;;;;;;22.22;13.55;;;;;;;12.32;82.71;100048.48;1802949;79;21295;-78
2021/05/07 03:45:53;;;;;;;21.05;11.65;;;;;;;12.44;81.66;100045.05;1802794;79;21279;-78
2021/05/07 03:48:59;;;;;;;14.33;9.78;;;;;;;12.53;81.01;100047.98;1802134;79;21205;-78
2021/05/07 03:52:05;;;;;;;16.10;11.85;;;;;;;12.57;80.57;100049.83;1802895;79;21217;-78
2021/05/07 03:55:14;;;;;;;15.32;10.08;;;;;;;12.59;80.62;100054.58;1803314;79;21216;-78
2021/05/07 03:58:19;;;;;;;15.25;9.50;;;;;;;12.66;80.48;100056.04;1802872;79;21208;-78
2021/05/07 04:01:26;;;;;;;13.53;9.50;;;;;;;12.76;79.88;100044.20;1802798;79;21283;-79
2021/05/07 04:04:34;;;;;;;15.80;9.33;;;;;;;12.90;79.37;100058.38;1801428;79;21185;-79
2021/05/07 04:07:41;;;;;;;14.47;8.78;;;;;;;13.04;78.73;100055.22;1802831;79;21878;-79
2021/05/07 04:10:52;;;;;;;15.80;9.33;;;;;;;13.21;78.16;100057.98;1802937;79;21338;-79
2021/05/07 04:13:56;;;;;;;13.08;9.13;;;;;;;13.40;77.04;100053.71;1801742;79;21212;-79
2021/05/07 04:17:03;;;;;;;15.00;8.83;;;;;;;13.58;76.37;100064.19;1801333;79;21176;-79
2021/05/07 04:20:09;;;;;;;16.95;8.75;;;;;;;13.75;75.43;100060.08;1801161;79;21830;-79
2021/05/07 04:23:15;;;;;;;14.75;8.93;;;;;;;13.89;74.35;100060.99;1802443;79;21177;-79
2021/05/07 04:26:22;;;;;;;12.50;8.30;;;;;;;14.03;73.45;100069.62;1802605;79;21739;-79
2021/05/07 04:29:30;;;;;;;13.55;8.83;;;;;;;14.20;72.63;100073.38;1801843;79;21200;-79
2021/05/07 04:32:37;;;;;;;10.65;7.45;;;;;;;14.31;72.14;100076.94;1801491;79;21749;-80
2021/05/07 04:35:43;;;;;;;10.28;6.05;;;;;;;14.47;71.29;100079.30;1802826;79;21878;-79
2021/05/07 04:38:48;;;;;;;13.15;6.50;;;;;;;14.56;68.98;100091.01;1802687;79;21712;-79
2021/05/07 04:41:53;;;;;;;14.07;5.58;;;;;;;14.63;68.70;100084.97;1802925;79;21296;-79
2021/05/07 04:44:59;;;;;;;11.28;6.58;;;;;;;14.72;68.46;100083.72;1800398;79;21208;-79
2021/05/07 04:48:05;;;;;;;8.30;5.45;;;;;;;14.81;66.96;100083.00;1787067;79;21819;-79
2021/05/07 04:51:11;;;;;;;7.50;5.67;;;;;;;14.88;65.97;100091.30;1749114;81;21771;-79
2021/05/07 04:54:18;;;;;;;13.48;6.20;;;;;;;14.94;65.30;100089.91;1797641;79;21763;-79
2021/05/07 04:57:22;;;;;;;12.45;8.03;;;;;;;15.03;64.36;100089.19;1783389;79;21193;-80
2021/05/07 05:00:28;;;;;;;6.60;4.80;;;;;;;15.11;63.61;100078.50;1793639;79;21712;-79
2021/05/07 05:03:34;;;;;;;8.60;5.03;;;;;;;15.23;62.04;100080.92;1782905;79;21292;-79
2021/05/07 05:06:40;;;;;;;8.83;5.08;;;;;;;15.32;62.52;100076.36;1796616;79;21527;-79
2021/05/07 05:09:45;;;;;;;10.60;6.40;;;;;;;15.49;62.49;100075.94;1792959;79;21338;-80
2021/05/07 05:12:51;;;;;;;10.95;6.15;;;;;;;15.66;61.05;100079.09;1787953;79;21172;-79
2021/05/07 05:15:58;;;;;;;12.93;6.05;;;;;;;15.83;60.82;100081.72;1788152;79;21152;-79
2021/05/07 05:19:04;;;;;;;14.40;7.92;;;;;;;16.01;59.65;100094.30;1785637;79;21276;-80
2021/05/07 05:22:10;;;;;;;16.17;9.45;;;;;;;16.10;58.64;100095.75;1783398;79;21311;-80
2021/05/07 05:25:17;;;;;;;15.10;9.20;;;;;;;16.18;57.77;100096.02;1788404;79;21802;-79
2021/05/07 05:28:23;;;;;;;17.40;9.40;;;;;;;16.26;56.59;100097.70;1784188;79;21319;-79
2021/05/07 05:31:28;;;;;;;11.97;6.47;;;;;;;16.32;55.35;100098.20;1787968;79;21827;-79
2021/05/07 05:34:33;;;;;;;8.25;3.87;;;;;;;16.43;55.67;100110.48;1784835;79;21272;-79
2021/05/07 05:37:39;;;;;;;4.37;2.98;;;;;;;16.57;54.56;100111.58;1790134;79;21306;-79
2021/05/07 05:40:45;;;;;;;5.75;2.67;;;;;;;16.68;52.19;100113.33;1785998;79;21276;-79
2021/05/07 05:43:50;;;;;;;5.78;3.00;;;;;;;16.83;51.68;100101.47;1783323;79;21165;-79
2021/05/07 05:46:56;;;;;;;3.95;2.55;;;;;;;17.05;51.16;100104.19;1780459;79;21283;-79
2021/05/07 05:50:01;;;;;;;5.97;2.40;;;;;;;17.15;51.26;100115.28;1786182;79;21299;-79
2021/05/07 05:53:08;;;;;;;6.12;2.37;;;;;;;17.20;49.86;100118.22;1790136;79;21282;-79
2021/05/07 05:56:13;;;;;;;5.00;2.58;;;;;;;17.28;48.79;100119.34;1785547;79;21217;-79
2021/05/07 05:59:20;;;;;;;11.03;3.47;;;;;;;17.32;49.46;100116.44;1788625;79;21331;-79
2021/05/07 06:02:26;;;;;;;7.20;3.20;;;;;;;17.47;49.41;100117.48;1787548;79;21282;-79
2021/05/07 06:05:33;;;;;;;8.03;2.90;;;;;;;17.66;49.08;100107.31;1776534;79;21401;-79
2021/05/07 06:08:39;;;;;;;3.80;2.15;;;;;;;17.85;46.88;100115.97;1781505;79;21208;-79
2021/05/07 06:11:44;;;;;;;8.80;3.45;;;;;;;17.91;46.35;100105.36;1780518;79;21386;-79
2021/05/07 06:14:49;;;;;;;3.02;1.75;;;;;;;17.87;45.76;100101.36;1788902;79;21326;-80
2021/05/07 06:17:55;;;;;;;8.03;2.40;;;;;;;17.86;45.14;100102.44;1782264;79;21308;-79
2021/05/07 06:21:00;;;;;;;7.60;3.00;;;;;;;17.79;44.63;100105.29;1787597;79;21295;-79
2021/05/07 06:24:06;;;;;;;8.00;3.00;;;;;;;17.77;44.87;100110.73;1783271;79;21617;-79
2021/05/07 06:27:12;;;;;;;5.35;2.90;;;;;;;17.93;45.58;100109.30;1775978;79;21596;-79
2021/05/07 06:30:20;;;;;;;7.67;3.02;;;;;;;18.20;45.79;100112.59;1778846;79;21196;-79
2021/05/07 06:33:27;;;;;;;5.80;2.52;;;;;;;18.33;45.30;100126.28;1778671;79;21245;-79
2021/05/07 06:36:33;;;;;;;5.80;2.15;;;;;;;18.25;44.12;100112.75;1780972;78;21299;-79
2021/05/07 06:39:39;;;;;;;4.70;2.45;;;;;;;18.27;43.12;100116.98;1782326;79;21951;-79
2021/05/07 06:42:46;;;;;;;3.52;1.90;;;;;;;18.29;42.83;100127.28;1790064;79;21885;-78
2021/05/07 06:45:56;;;;;;;2.30;1.55;;;;;;;18.31;42.71;100128.45;1785069;79;21295;-79
2021/05/07 06:49:02;;;;;;;4.83;2.35;;;;;;;18.34;42.98;100129.35;1781293;79;21280;-79
2021/05/07 06:52:08;;;;;;;4.80;1.77;;;;;;;18.34;43.33;100128.81;1782993;79;21339;-79
2021/05/07 06:55:16;;;;;;;2.42;1.60;;;;;;;18.41;42.06;100127.91;1781378;79;21811;-79
2021/05/07 06:58:22;;;;;;;3.67;2.10;;;;;;;18.40;42.06;100125.68;1785104;79;21319;-79
2021/05/07 07:01:29;;;;;;;6.25;2.22;;;;;;;18.28;41.99;100128.36;1783173;79;21365;-79
2021/05/07 07:04:35;;;;;;;4.05;2.10;;;;;;;18.24;41.93;100127.67;1775582;79;21934;-79
2021/05/07 07:07:41;;;;;;;5.62;2.02;;;;;;;18.30;41.55;100128.13;1776437;79;21216;-79
2021/05/07 07:10:48;;;;;;;5.20;1.90;;;;;;;18.48;38.81;100126.73;1788094;79;21753;-79
2021/05/07 07:13:56;;;;;;;4.50;1.80;;;;;;;18.58;38.89;100131.71;1722527;81;21276;-79
2021/05/07 07:17:03;;;;;;;6.05;1.60;;;;;;;18.65;38.96;100137.48;1783350;79;21821;-79
2021/05/07 07:20:09;;;;;;;2.22;1.32;;;;;;;18.69;36.87;100138.44;1779631;79;21177;-79
2021/05/07 07:23:15;;;;;;;4.33;1.80;;;;;;;18.68;40.14;100138.08;1783951;79;21256;-79
2021/05/07 07:26:21;;;;;;;3.80;1.50;;;;;;;18.76;40.85;100141.41;1778600;79;21279;-79
2021/05/07 07:29:28;;;;;;;2.67;1.45;;;;;;;18.89;41.59;100141.23;1784220;79;21699;-80
2021/05/07 07:32:34;;;;;;;4.62;1.75;;;;;;;18.85;40.41;100148.32;1785300;79;21497;-77
2021/05/07 07:35:39;;;;;;;2.95;1.32;;;;;;;18.79;39.77;100149.81;1780692;79;21385;-79
2021/05/07 07:38:48;;;;;;;2.92;1.15;;;;;;;18.93;39.31;100154.09;1784247;79;21279;-79
2021/05/07 07:41:56;;;;;;;3.95;1.40;;;;;;;19.12;36.17;100156.27;1783379;79;21567;-79
2021/05/07 07:45:03;;;;;;;4.87;1.57;;;;;;;19.21;35.27;100149.30;1786774;79;21193;-80
2021/05/07 07:48:12;;;;;;;;;;;;;;;19.30;36.00;100152.04;1780970;79;21641;-79
2021/05/07 07:51:17;;;;;;;7.12;1.50;;;;;;;19.47;36.52;100155.50;1793725;79;20349;-79
2021/05/07 07:54:25;;;;;;;4.12;1.60;;;;;;;19.58;36.62;100146.37;1786275;79;21374;-79
2021/05/07 07:57:30;;;;;;;4.37;1.45;;;;;;;19.67;35.56;100142.19;1772142;79;21177;-79
2021/05/07 08:00:35;;;;;;;6.75;1.50;;;;;;;19.75;35.77;100132.64;1780286;79;21300;-79
2021/05/07 08:03:41;;;;;;;4.10;1.07;;;;;;;19.81;35.38;100124.22;1780352;79;21347;-78
2021/05/07 08:06:48;;;;;;;2.58;1.40;;;;;;;19.84;32.41;100133.42;1782340;79;21356;-79
2021/05/07 08:09:54;;;;;;;3.02;1.20;;;;;;;19.78;31.62;100143.27;1781568;79;21330;-79
2021/05/07 08:13:01;;;;;;;5.85;1.27;;;;;;;19.66;31.95;100146.02;1784503;79;21743;-79
2021/05/07 08:16:06;;;;;;;2.58;1.00;;;;;;;19.63;31.72;100145.14;1787358;79;21197;-80
2021/05/07 08:19:14;;;;;;;3.10;1.37;;;;;;;19.59;29.46;100148.89;1783641;79;22037;-79
2021/05/07 08:22:22;;;;;;;2.47;1.37;;;;;;;19.58;29.21;100145.82;1779391;79;21796;-80
2021/05/07 08:25:28;;;;;;;2.42;1.10;;;;;;;19.57;29.99;100145.53;1781203;79;21339;-80
2021/05/07 08:28:35;;;;;;;3.85;1.17;;;;;;;19.65;32.02;100151.27;1786634;79;21173;-80
2021/05/07 08:31:41;;;;;;;2.98;1.40;;;;;;;19.72;30.73;100158.12;1791719;79;21184;-80
2021/05/07 08:34:48;;;;;;;5.28;1.30;;;;;;;19.65;29.29;100151.27;1787915;79;21895;-80
2021/05/07 08:37:53;;;;;;;3.52;1.60;;;;;;;19.57;30.07;100150.20;1782291;79;21300;-81
2021/05/07 08:40:52;;;;;;;4.25;1.22;;;;;;;19.56;30.53;100154.91;1784635;79;21208;-79
2021/05/07 08:43:46;;;;;;;3.58;1.02;;;;;;;19.48;30.89;100163.59;1773737;79;21193;-80
2021/05/07 08:46:53;;;;;;;2.55;1.07;;;;;;;19.46;30.68;100161.59;1792977;79;21595;-79
2021/05/07 08:50:01;;;;;;;3.85;1.50;;;;;;;19.48;31.39;100155.79;1796963;79;21291;-79
2021/05/07 08:53:09;;;;;;;3.17;1.22;;;;;;;19.50;33.58;100155.03;1789264;79;21889;-80
2021/05/07 08:56:16;;;;;;;4.22;1.25;;;;;;;19.50;33.54;100164.19;1789407;79;21288;-80
2021/05/07 08:59:22;;;;;;;2.67;1.35;;;;;;;19.47;34.27;100156.34;1785499;79;21840;-79
2021/05/07 09:02:35;;;;;;;3.37;1.10;;;;;;;19.56;34.57;100162.39;1775414;79;21359;-79
2021/05/07 09:05:40;;;;;;;5.05;1.40;;;;;;;19.73;35.05;100157.87;1787895;79;21295;-80
2021/05/07 09:08:48;;;;;;;7.00;1.52;;;;;;;19.83;34.93;100153.11;1786219;79;21307;-81
2021/05/07 09:11:53;;;;;;;3.17;1.10;;;;;;;19.91;35.18;100148.05;1788974;79;21875;-80
2021/05/07 09:15:00;;;;;;;10.00;1.30;;;;;;;20.01;35.39;100151.59;1794339;79;21194;-80
2021/05/07 09:18:09;;;;;;;4.33;1.25;;;;;;;20.11;34.88;100154.60;1786746;79;21377;-80
2021/05/07 09:21:16;;;;;;;3.98;1.47;;;;;;;20.25;33.78;100148.80;1776019;79;21380;-80
2021/05/07 09:24:22;;;;;;;6.12;1.25;;;;;;;20.37;34.52;100146.83;1788128;79;21829;-81
2021/05/07 09:27:30;;;;;;;1.52;0.88;;;;;;;20.45;35.90;100146.45;1798086;79;21394;-80
2021/05/07 09:30:37;;;;;;;2.20;1.07;;;;;;;20.51;34.56;100139.10;1787736;79;21351;-81
2021/05/07 09:33:53;;;;;;;2.67;1.12;;;;;;;20.39;32.92;100146.05;1785791;79;21830;-80
2021/05/07 09:37:00;;;;;;;4.65;1.15;;;;;;;20.40;33.92;100139.41;1777663;79;21298;-79
2021/05/07 09:40:19;;;;;;;1.80;0.80;;;;;;;20.52;33.64;100136.64;1789386;79;21783;-79
2021/05/07 09:43:25;;;;;;;2.08;0.90;;;;;;;20.60;33.27;100144.02;1788999;79;21274;-79
2021/05/07 09:46:43;;;;;;;2.37;1.10;;;;;;;20.66;34.01;100145.84;1760889;79;21311;-80
2021/05/07 09:49:48;;;;;;;1.72;0.88;;;;;;;20.67;33.01;100150.30;1791165;79;21254;-81
2021/05/07 09:52:57;;;;;;;6.50;1.20;;;;;;;20.66;33.11;100152.78;1791145;79;21711;-81
2021/05/07 09:56:03;;;;;;;2.90;1.25;;;;;;;20.64;32.43;100154.11;1786216;79;21783;-81
2021/05/07 09:59:12;;;;;;;3.35;1.20;;;;;;;20.66;33.53;100155.56;1782750;79;21274;-81
2021/05/07 10:02:17;;;;;;;1.30;0.78;;;;;;;20.57;30.95;100157.59;1775535;79;21310;-78
2021/05/07 10:05:23;;;;;;;2.17;1.10;;;;;;;20.43;32.26;100156.98;1749512;79;21576;-78
2021/05/07 10:08:29;;;;;;;2.45;0.80;;;;;;;20.46;33.96;100160.64;1773769;81;21338;-78
2021/05/07 10:11:49;;;;;;;4.95;0.90;;;;;;;20.44;32.88;100158.66;1760497;79;21263;-79
2021/05/07 10:14:53;;;;;;;5.55;0.88;;;;;;;20.39;32.20;100162.72;1779170;79;21346;-78
2021/05/07 10:17:59;;;;;;;2.98;0.78;;;;;;;20.25;34.07;100159.91;1745196;82;22439;-78
2021/05/07 10:21:13;;;;;;;2.10;1.10;;;;;;;20.15;34.99;100157.20;1768993;79;21228;-79
2021/05/07 10:24:25;;;;;;;2.08;1.07;;;;;;;20.19;35.12;100163.67;1774459;79;22611;-79
2021/05/07 10:27:31;;;;;;;2.55;1.00;;;;;;;20.25;34.60;100160.75;1784472;79;21294;-79
2021/05/07 10:30:41;;;;;;;9.88;1.10;;;;;;;20.34;33.12;100148.72;1777137;79;21208;-79
2021/05/07 10:34:08;;;;;;;1.65;1.05;;;;;;;20.50;33.06;100149.37;1786422;79;21267;-80
2021/05/07 10:37:20;;;;;;;2.55;0.68;;;;;;;20.68;32.54;100153.92;1781235;79;21295;-80
2021/05/07 10:40:32;;;;;;;1.12;0.60;;;;;;;20.87;33.63;100158.75;1785025;79;21311;-81
2021/05/07 10:43:52;;;;;;;3.80;0.90;;;;;;;21.03;32.64;100160.75;1785102;79;21177;-81
2021/05/07 10:47:11;;;;;;;4.70;0.82;;;;;;;21.15;32.76;100160.13;1789305;79;21296;-80
2021/05/07 10:50:24;;;;;;;1.20;0.88;;;;;;;21.17;32.42;100153.78;1794926;79;21161;-81
2021/05/07 10:53:42;;;;;;;1.60;0.78;;;;;;;21.04;31.77;100147.14;1785142;79;21267;-81
2021/05/07 10:56:48;;;;;;;7.10;1.02;;;;;;;20.88;32.49;100150.70;1785749;79;21296;-81
2021/05/07 11:00:08;;;;;;;1.95;1.00;;;;;;;20.80;33.70;100149.72;1779284;79;21826;-80
2021/05/07 11:03:15;;;;;;;1.30;0.63;;;;;;;20.78;32.88;100142.16;1788078;79;21279;-81
2021/05/07 11:06:20;;;;;;;1.52;0.85;;;;;;;20.79;33.64;100148.02;1784969;79;21268;-81
2021/05/07 11:09:31;;;;;;;1.67;0.80;;;;;;;20.83;32.70;100157.00;1787119;79;21856;-81
2021/05/07 11:12:39;;;;;;;1.37;0.93;;;;;;;20.74;31.97;100142.35;1785962;79;21510;-81
2021/05/07 11:15:46;;;;;;;;;;;;;;;20.64;31.18;100129.94;1784509;79;21303;-80
2021/05/07 11:18:54;;;;;;;0.88;0.72;;;;;;;20.59;32.16;100127.61;1787626;79;20296;-80
2021/05/07 11:22:06;;;;;;;2.27;0.80;;;;;;;20.57;31.74;100133.42;1783494;79;21788;-80
2021/05/07 11:25:11;;;;;;;2.10;0.90;;;;;;;20.58;32.35;100130.94;1764471;79;21290;-80
2021/05/07 11:28:23;;;;;;;1.82;0.80;;;;;;;20.58;33.35;100124.54;1777985;79;21272;-80
2021/05/07 11:31:33;;;;;;;1.17;0.80;;;;;;;20.61;32.80;100127.67;1787661;79;21299;-79
2021/05/07 11:34:38;;;;;;;1.90;0.98;;;;;;;20.62;32.78;100122.95;1784280;79;21208;-79
2021/05/07 11:37:44;;;;;;;2.83;1.07;;;;;;;20.72;33.11;100125.94;1782558;79;21299;-80
2021/05/07 11:40:51;;;;;;;1.80;1.00;;;;;;;20.81;33.56;100124.45;1788287;79;21293;-79
2021/05/07 11:44:00;;;;;;;6.72;1.20;;;;;;;20.85;33.65;100125.64;1793262;79;21137;-80
2021/05/07 11:47:09;;;;;;;1.32;1.00;;;;;;;20.90;33.95;100129.91;1782461;79;21272;-80
2021/05/07 11:50:15;;;;;;;2.35;1.15;;;;;;;20.92;33.81;100125.48;1778442;79;21649;-80
2021/05/07 11:53:27;;;;;;;3.10;1.35;;;;;;;20.97;34.22;100122.80;1781356;79;21644;-80
2021/05/07 11:56:34;;;;;;;5.08;1.45;;;;;;;21.01;33.05;100120.37;1791021;79;21177;-80
2021/05/07 11:59:40;;;;;;;2.35;0.85;;;;;;;21.02;33.38;100113.16;1782330;79;21741;-80
2021/05/07 12:02:46;;;;;;;2.55;1.20;;;;;;;20.96;33.45;100111.39;1784558;79;21166;-80
2021/05/07 12:05:53;;;;;;;2.33;0.90;;;;;;;20.95;34.79;100104.14;1785714;79;21838;-81
2021/05/07 12:08:58;;;;;;;2.98;1.30;;;;;;;20.96;35.03;100107.77;1778685;79;21598;-81
2021/05/07 12:12:04;;;;;;;3.62;1.25;;;;;;;20.96;35.53;100107.22;1706339;82;21327;-81
2021/05/07 12:15:22;;;;;;;2.17;0.80;;;;;;;20.98;36.10;100116.69;1784116;79;21328;-81
2021/05/07 12:18:32;;;;;;;6.55;1.70;;;;;;;20.95;35.00;100113.88;1791045;79;21307;-80
2021/05/07 12:21:49;;;;;;;3.17;1.47;;;;;;;20.80;34.94;100108.03;1800319;79;21361;-80
2021/05/07 12:24:47;;;;;;;5.47;1.55;;;;;;;20.64;35.57;100107.70;1791569;79;21297;-80
2021/05/07 12:27:55;;;;;;;5.75;1.65;;;;;;;20.54;36.08;100098.33;1790280;79;21176;-80
2021/05/07 12:31:00;;;;;;;6.28;1.62;;;;;;;20.43;35.45;100093.09;1800347;79;21867;-80
2021/05/07 12:34:05;;;;;;;10.28;1.80;;;;;;;20.36;35.90;100102.09;1776687;79;21241;-79
2021/05/07 12:37:12;;;;;;;10.03;1.55;;;;;;;20.27;34.87;100100.23;1784561;78;21306;-80
2021/05/07 12:40:20;;;;;;;9.05;1.72;;;;;;;20.21;34.81;100090.66;1794770;79;21259;-79
2021/05/07 12:43:27;;;;;;;5.83;2.10;;;;;;;20.17;33.26;100097.25;1784417;79;21157;-79
2021/05/07 12:46:34;;;;;;;3.33;1.52;;;;;;;20.08;33.33;100085.67;1793413;79;21276;-80
2021/05/07 12:49:39;;;;;;;3.95;1.30;;;;;;;20.02;33.50;100086.66;1776775;79;21268;-79
2021/05/07 12:52:46;;;;;;;3.20;1.65;;;;;;;19.96;33.25;100086.25;1790381;79;21320;-80
2021/05/07 12:55:51;;;;;;;3.77;1.50;;;;;;;19.96;33.02;100084.86;1792987;79;21189;-80
2021/05/07 12:58:57;;;;;;;3.20;1.60;;;;;;;19.93;32.26;100083.95;1783704;79;21177;-80
2021/05/07 13:02:04;;;;;;;5.78;1.55;;;;;;;19.86;32.63;100074.37;1774345;80;21308;-80
2021/05/07 13:05:10;;;;;;;5.62;1.50;;;;;;;19.84;31.64;100067.37;1789607;79;21291;-80
2021/05/07 13:08:15;;;;;;;3.52;1.55;;;;;;;19.79;31.80;100072.80;1776173;79;21224;-80
2021/05/07 13:11:20;;;;;;;7.08;2.00;;;;;;;19.74;31.68;100066.59;1778513;79;21338;-80
2021/05/07 13:14:26;;;;;;;4.60;1.87;;;;;;;19.70;31.41;100066.77;1775035;80;21216;-80
2021/05/07 13:17:32;;;;;;;6.33;1.57;;;;;;;19.64;31.89;100065.81;1782245;79;21340;-80
2021/05/07 13:20:38;;;;;;;2.87;1.30;;;;;;;19.58;32.09;100061.21;1789543;80;21347;-80
2021/05/07 13:23:43;;;;;;;6.22;1.62;;;;;;;19.56;33.10;100056.97;1793286;79;21340;-80
2021/05/07 13:26:49;;;;;;;4.30;1.35;;;;;;;19.53;33.73;100060.25;1794787;80;21559;-80
2021/05/07 13:29:58;;;;;;;4.67;1.60;;;;;;;19.51;32.69;100049.92;1795909;80;21154;-80
2021/05/07 13:33:04;;;;;;;2.85;1.52;;;;;;;19.48;32.50;100054.55;1794245;80;21827;-80
2021/05/07 13:36:10;;;;;;;4.35;1.20;;;;;;;19.40;32.54;100058.55;1795366;80;21374;-80
2021/05/07 13:39:16;;;;;;;2.42;1.10;;;;;;;19.34;33.20;100051.20;1795817;80;21752;-80
2021/05/07 13:42:22;;;;;;;4.92;1.25;;;;;;;19.31;33.24;100050.28;1794417;80;21982;-80
2021/05/07 13:45:28;;;;;;;4.80;1.32;;;;;;;19.27;33.62;100045.75;1794644;80;21347;-80
2021/05/07 13:48:34;;;;;;;7.40;1.50;;;;;;;19.24;34.47;100044.83;1793534;80;21304;-80
2021/05/07 13:51:42;;;;;;;5.35;1.40;;;;;;;19.20;34.29;100035.33;1794747;80;21315;-80
2021/05/07 13:54:48;;;;;;;2.65;1.27;;;;;;;19.18;35.41;100039.41;1794217;80;21311;-80
2021/05/07 13:57:53;;;;;;;3.85;1.40;;;;;;;19.15;36.34;100041.59;1793777;80;21252;-80
2021/05/07 14:00:58;;;;;;;2.90;1.65;;;;;;;19.13;35.75;100035.42;1795022;80;21252;-80
2021/05/07 14:04:04;;;;;;;4.45;1.45;;;;;;;19.11;36.42;100033.99;1795080;80;21312;-80
2021/05/07 14:07:09;;;;;;;3.45;1.55;;;;;;;19.08;36.18;100032.53;1795209;80;21847;-80
2021/05/07 14:10:16;;;;;;;2.70;1.20;;;;;;;19.04;35.29;100019.39;1795582;80;21161;-80
2021/05/07 14:13:21;;;;;;;8.03;1.40;;;;;;;18.98;35.16;100019.80;1794249;80;22443;-80
2021/05/07 14:16:27;;;;;;;7.35;1.57;;;;;;;18.93;35.98;100015.52;1793838;80;21311;-80
2021/05/07 14:19:33;;;;;;;5.20;1.40;;;;;;;18.89;36.77;100023.45;1793697;80;21355;-80
2021/05/07 14:22:39;;;;;;;7.00;1.47;;;;;;;18.91;36.27;100019.05;1766322;81;21249;-80
2021/05/07 14:25:46;;;;;;;5.85;1.20;;;;;;;18.92;35.91;100008.84;1802070;79;21175;-80
2021/05/07 14:28:52;;;;;;;4.15;1.30;;;;;;;18.91;35.61;99999.66;1801727;79;21733;-80